createdAt,value
2023-11-15T00:02:02.095Z,98985.17
2023-11-15T00:04:34.109Z,98972.04
2023-11-15T00:07:07.746Z,98985.64
2023-11-15T00:09:39.732Z,98984.09
2023-11-15T00:12:12.571Z,98987.92
2023-11-15T00:14:46.245Z,98987.33
2023-11-15T00:17:18.856Z,98988.27
2023-11-15T00:19:50.930Z,98988.08
2023-11-15T00:22:26.793Z,98991.36
2023-11-15T00:24:59.055Z,98993.79
2023-11-15T00:27:31.074Z,98992.41
2023-11-15T00:30:04.344Z,98995.23
2023-11-15T00:32:36.482Z,98987.48
2023-11-15T00:35:09.938Z,98993.64
2023-11-15T00:38:05.898Z,98992.46
2023-11-15T00:40:38.476Z,98990.30
2023-11-15T00:43:11.072Z,98989.55
2023-11-15T00:45:43.083Z,98993.83
2023-11-15T00:48:15.641Z,99000.69
2023-11-15T00:50:47.808Z,98999.86
2023-11-15T00:53:20.152Z,99001.73
2023-11-15T00:55:52.816Z,99003.84
2023-11-15T00:58:29.644Z,99007.19
2023-11-15T01:01:01.895Z,99003.84
2023-11-15T01:03:34.403Z,99002.20
2023-11-15T01:06:08.375Z,99002.03
2023-11-15T01:08:40.746Z,98999.60
2023-11-15T01:11:13.482Z,99006.29
2023-11-15T01:13:45.627Z,99001.30
2023-11-15T01:16:18.465Z,99002.56
2023-11-15T01:18:51.092Z,99000.44
2023-11-15T01:21:25.606Z,99008.05
2023-11-15T01:23:57.714Z,99011.23
2023-11-15T01:26:30.126Z,99007.41
2023-11-15T01:29:03.016Z,98994.25
2023-11-15T01:31:35.272Z,99008.08
2023-11-15T01:34:07.802Z,99005.17
2023-11-15T01:36:39.840Z,99005.12
2023-11-15T01:39:17.670Z,99007.02
2023-11-15T01:41:50.838Z,99010.16
2023-11-15T01:44:24.170Z,99005.25
2023-11-15T01:46:56.370Z,99007.45
2023-11-15T01:49:29.191Z,99002.92
2023-11-15T01:52:02.354Z,99003.18
2023-11-15T01:54:34.438Z,99001.67
2023-11-15T01:57:06.909Z,99002.63
2023-11-15T01:59:39.228Z,98996.94
2023-11-15T02:02:11.911Z,98992.52
2023-11-15T02:04:44.323Z,99004.02
2023-11-15T02:07:16.342Z,99004.96
2023-11-15T02:09:48.817Z,99006.08
2023-11-15T02:12:22.059Z,99005.18
2023-11-15T02:14:55.362Z,99006.64
2023-11-15T02:17:27.547Z,99006.36
2023-11-15T02:19:59.986Z,98993.91
2023-11-15T02:22:33.696Z,99012.00
2023-11-15T02:25:07.039Z,99013.50
2023-11-15T02:27:39.453Z,99016.25
2023-11-15T02:30:13.239Z,98997.77
2023-11-15T02:32:46.366Z,99014.91
2023-11-15T02:35:18.542Z,99005.27
2023-11-15T02:37:51.535Z,99015.63
2023-11-15T02:40:23.517Z,99019.79
2023-11-15T02:42:58.628Z,99020.79
2023-11-15T02:45:30.635Z,99020.00
2023-11-15T02:48:03.209Z,99024.28
2023-11-15T02:50:35.504Z,99025.29
2023-11-15T02:53:07.481Z,99029.90
2023-11-15T02:55:39.591Z,99031.28
2023-11-15T02:58:13.153Z,99035.05
2023-11-15T03:00:46.118Z,99035.77
2023-11-15T03:03:18.370Z,99033.12
2023-11-15T03:05:50.847Z,99037.89
2023-11-15T03:08:24.955Z,99038.41
2023-11-15T03:10:57.047Z,99038.27
2023-11-15T03:13:29.294Z,99047.17
2023-11-15T03:16:02.489Z,99044.44
2023-11-15T03:18:34.669Z,99050.56
2023-11-15T03:21:08.889Z,99056.87
2023-11-15T03:23:40.950Z,99060.60
2023-11-15T03:26:12.974Z,99066.63
2023-11-15T03:28:45.286Z,99066.39
2023-11-15T03:31:17.585Z,99060.80
2023-11-15T03:33:52.166Z,99066.55
2023-11-15T03:36:24.958Z,99060.33
2023-11-15T03:38:57.039Z,99060.75
2023-11-15T03:41:29.096Z,99065.02
2023-11-15T03:44:01.198Z,99064.15
2023-11-15T03:46:33.259Z,99065.56
2023-11-15T03:49:05.347Z,99070.46
2023-11-15T03:51:37.364Z,99075.16
2023-11-15T03:54:10.439Z,99078.48
2023-11-15T03:56:42.423Z,99082.88
2023-11-15T03:59:14.738Z,99084.14
2023-11-15T04:01:55.121Z,99078.35
2023-11-15T04:04:31.094Z,99085.27
2023-11-15T04:07:04.779Z,99088.59
2023-11-15T04:09:37.508Z,99092.80
2023-11-15T04:12:10.509Z,99094.84
2023-11-15T04:14:42.587Z,99097.40
2023-11-15T04:17:15.285Z,99097.30
2023-11-15T04:19:47.654Z,99095.92
2023-11-15T04:22:19.768Z,99102.87
2023-11-15T04:24:53.861Z,99101.59
2023-11-15T04:27:26.659Z,99097.86
2023-11-15T04:29:59.280Z,99104.08
2023-11-15T04:32:31.386Z,99108.02
2023-11-15T04:35:04.321Z,99109.30
2023-11-15T04:37:36.919Z,99114.15
2023-11-15T04:40:12.053Z,99110.41
2023-11-15T04:42:46.538Z,99113.85
2023-11-15T04:45:18.882Z,99118.83
2023-11-15T04:47:51.298Z,99126.42
2023-11-15T04:50:24.405Z,99122.35
2023-11-15T04:52:58.806Z,99109.06
2023-11-15T04:55:30.934Z,99127.48
2023-11-15T04:58:02.987Z,99128.73
2023-11-15T05:00:35.193Z,99132.77
2023-11-15T05:03:07.504Z,99140.78
2023-11-15T05:05:44.207Z,99143.30
2023-11-15T05:08:16.386Z,99146.93
2023-11-15T05:10:48.844Z,99149.29
2023-11-15T05:13:21.080Z,99146.05
2023-11-15T05:15:53.465Z,99150.11
2023-11-15T05:18:25.848Z,99153.81
2023-11-15T05:20:58.257Z,99142.41
2023-11-15T05:23:30.347Z,99164.66
2023-11-15T05:26:02.433Z,99163.40
2023-11-15T05:28:34.604Z,99166.66
2023-11-15T05:31:07.660Z,99168.90
2023-11-15T05:33:39.912Z,99167.59
2023-11-15T05:36:13.599Z,99173.41
2023-11-15T05:38:45.621Z,99177.27
2023-11-15T05:41:17.777Z,99187.08
2023-11-15T05:43:49.841Z,99190.67
2023-11-15T05:46:22.470Z,99186.75
2023-11-15T05:48:55.618Z,99197.15
2023-11-15T05:51:27.972Z,99201.25
2023-11-15T05:54:05.462Z,99210.42
2023-11-15T05:56:38.127Z,99211.38
2023-11-15T05:59:11.161Z,99219.09
2023-11-15T06:01:43.446Z,99224.04
2023-11-15T06:04:15.643Z,99226.65
2023-11-15T06:06:48.042Z,99232.21
2023-11-15T06:09:20.208Z,99236.27
2023-11-15T06:11:55.657Z,99243.43
2023-11-15T06:14:27.875Z,99242.00
2023-11-15T06:17:00.241Z,99237.86
2023-11-15T06:19:32.966Z,99247.80
2023-11-15T06:22:05.405Z,99246.77
2023-11-15T06:24:37.652Z,99237.55
2023-11-15T06:27:09.769Z,99253.92
2023-11-15T06:29:42.011Z,99255.67
2023-11-15T06:32:14.212Z,99264.23
2023-11-15T06:34:46.494Z,99270.77
2023-11-15T06:37:19.254Z,99278.88
2023-11-15T06:39:51.481Z,99287.05
2023-11-15T06:42:23.564Z,99290.30
2023-11-15T06:44:55.600Z,99292.13
2023-11-15T06:47:30.494Z,99295.56
2023-11-15T06:50:02.653Z,99297.08
2023-11-15T06:52:35.186Z,99301.14
2023-11-15T06:55:10.973Z,99306.86
2023-11-15T06:57:45.014Z,99309.73
2023-11-15T07:00:18.553Z,99309.41
2023-11-15T07:02:50.862Z,99313.62
2023-11-15T07:05:23.475Z,99316.87
2023-11-15T07:07:56.173Z,99319.02
2023-11-15T07:10:31.320Z,99323.32
2023-11-15T07:13:03.920Z,99323.30
2023-11-15T07:15:36.676Z,99325.69
2023-11-15T07:18:08.887Z,99331.98
2023-11-15T07:20:43.534Z,99338.73
2023-11-15T07:23:16.390Z,99337.06
2023-11-15T07:25:48.467Z,99346.84
2023-11-15T07:28:20.986Z,99348.03
2023-11-15T07:30:56.725Z,99353.13
2023-11-15T07:33:29.043Z,99350.66
2023-11-15T07:36:01.344Z,99363.38
2023-11-15T07:38:36.072Z,99355.42
2023-11-15T07:41:08.886Z,99368.46
2023-11-15T07:43:42.510Z,99381.95
2023-11-15T07:46:15.093Z,99368.74
2023-11-15T07:48:50.067Z,99387.41
2023-11-15T07:51:22.213Z,99393.10
2023-11-15T07:53:54.251Z,99391.48
2023-11-15T07:56:26.254Z,99388.46
2023-11-15T07:58:58.302Z,99395.45
2023-11-15T08:01:30.882Z,99394.52
2023-11-15T08:04:04.002Z,99399.59
2023-11-15T08:06:37.266Z,99401.90
2023-11-15T08:09:12.632Z,99402.46
2023-11-15T08:11:46.370Z,99413.61
2023-11-15T08:14:18.917Z,99419.02
2023-11-15T08:16:51.376Z,99428.14
2023-11-15T08:19:23.859Z,99434.20
2023-11-15T08:21:57.786Z,99438.71
2023-11-15T08:24:29.805Z,99446.70
2023-11-15T08:27:02.275Z,99440.02
2023-11-15T08:29:34.265Z,99460.48
2023-11-15T08:32:07.478Z,99457.78
2023-11-15T08:34:39.529Z,99467.08
2023-11-15T08:37:14.003Z,99468.61
2023-11-15T08:39:46.140Z,99472.58
2023-11-15T08:42:18.383Z,99474.73
2023-11-15T08:44:50.478Z,99479.48
2023-11-15T08:47:23.037Z,99472.23
2023-11-15T08:49:55.438Z,99484.94
2023-11-15T08:52:27.945Z,99485.27
2023-11-15T08:55:00.407Z,99490.10
2023-11-15T08:57:32.606Z,99496.60
2023-11-15T09:00:04.940Z,99505.14
2023-11-15T09:02:37.163Z,99515.84
2023-11-15T09:05:10.153Z,99532.19
2023-11-15T09:07:43.148Z,99521.44
2023-11-15T09:10:15.582Z,99540.58
2023-11-15T09:12:47.744Z,99534.09
2023-11-15T09:15:21.559Z,99546.75
2023-11-15T09:17:53.787Z,99542.52
2023-11-15T09:20:28.730Z,99555.52
2023-11-15T09:23:01.184Z,99558.58
2023-11-15T09:25:36.719Z,99559.70
2023-11-15T09:28:08.865Z,99570.41
2023-11-15T09:30:41.307Z,99574.09
2023-11-15T09:33:17.937Z,99577.20
2023-11-15T09:35:55.233Z,99583.59
2023-11-15T09:38:33.548Z,99586.48
2023-11-15T09:41:11.400Z,99601.87
2023-11-15T09:43:45.548Z,99608.16
2023-11-15T09:46:17.784Z,99613.52
2023-11-15T09:48:57.078Z,99613.39
2023-11-15T09:51:35.598Z,99613.42
2023-11-15T09:54:16.058Z,99609.96
2023-11-15T09:56:51.002Z,99607.84
2023-11-15T09:59:24.282Z,99607.33
2023-11-15T10:01:58.674Z,99610.39
2023-11-15T10:04:31.445Z,99613.30
2023-11-15T10:07:06.437Z,99627.54
2023-11-15T10:09:41.637Z,99615.36
2023-11-15T10:12:14.367Z,99622.60
2023-11-15T10:14:54.893Z,99627.09
2023-11-15T10:17:42.096Z,99626.42
2023-11-15T10:20:26.890Z,99633.36
2023-11-15T10:22:59.389Z,99637.66
2023-11-15T10:25:32.900Z,99646.46
2023-11-15T10:28:08.863Z,99649.59
2023-11-15T10:30:42.276Z,99654.85
2023-11-15T10:33:15.695Z,99648.26
2023-11-15T10:35:48.573Z,99662.65
2023-11-15T10:38:24.675Z,99664.73
2023-11-15T10:40:58.772Z,99668.58
2023-11-15T10:43:31.772Z,99670.07
2023-11-15T10:46:07.017Z,99672.83
2023-11-15T10:48:41.752Z,99677.13
2023-11-15T10:51:15.792Z,99680.98
2023-11-15T10:53:48.958Z,99693.98
2023-11-15T10:56:23.416Z,99691.48
2023-11-15T10:58:56.245Z,99685.10
2023-11-15T11:01:30.673Z,99702.06
2023-11-15T11:04:08.822Z,99705.98
2023-11-15T11:06:48.993Z,99705.65
2023-11-15T11:09:27.029Z,99716.32
2023-11-15T11:12:07.153Z,99718.10
2023-11-15T11:14:39.788Z,99722.73
2023-11-15T11:17:35.475Z,99718.22
2023-11-15T11:20:27.914Z,99736.65
2023-11-15T11:23:18.403Z,99739.55
2023-11-15T11:25:53.350Z,99742.88
2023-11-15T11:28:25.823Z,99741.14
2023-11-15T11:31:19.256Z,99746.30
2023-11-15T11:34:10.995Z,99742.41
2023-11-15T11:36:51.994Z,99748.74
2023-11-15T11:39:44.820Z,99751.91
2023-11-15T11:42:28.025Z,99757.29
2023-11-15T11:45:00.247Z,99764.34
2023-11-15T11:47:32.693Z,99751.06
2023-11-15T11:50:07.674Z,99771.77
2023-11-15T11:52:40.839Z,99771.69
2023-11-15T11:55:13.970Z,99780.81
2023-11-15T11:57:46.214Z,99778.60
2023-11-15T12:00:22.281Z,99780.64
2023-11-15T12:03:01.124Z,99778.79
2023-11-15T12:05:40.965Z,99800.16
2023-11-15T12:08:15.714Z,99802.23
2023-11-15T12:10:48.965Z,99797.80
2023-11-15T12:13:21.306Z,99814.05
2023-11-15T12:15:53.459Z,99818.35
2023-11-15T12:18:25.879Z,99825.21
2023-11-15T12:20:58.621Z,99815.13
2023-11-15T12:23:30.918Z,99829.34
2023-11-15T12:26:05.605Z,99835.29
2023-11-15T12:28:36.525Z,99837.94
2023-11-15T12:31:10.260Z,99837.02
2023-11-15T12:33:42.781Z,99837.44
2023-11-15T12:36:16.905Z,99829.04
2023-11-15T12:38:58.860Z,99833.50
2023-11-15T12:41:30.900Z,99842.15
2023-11-15T12:44:13.308Z,99841.05
2023-11-15T12:46:46.378Z,99850.54
2023-11-15T12:49:23.750Z,99856.67
2023-11-15T12:51:55.854Z,99852.73
2023-11-15T12:54:28.197Z,99864.38
2023-11-15T12:57:13.128Z,99866.58
2023-11-15T12:59:49.355Z,99867.52
2023-11-15T13:02:28.168Z,99873.02
2023-11-15T13:05:04.726Z,99876.90
2023-11-15T13:07:37.089Z,99877.59
2023-11-15T13:10:11.819Z,99868.35
2023-11-15T13:12:43.808Z,99881.52
2023-11-15T13:15:19.245Z,99884.58
2023-11-15T13:17:52.614Z,99893.11
2023-11-15T13:20:24.755Z,99895.50
2023-11-15T13:22:56.776Z,99903.16
2023-11-15T13:25:28.737Z,99913.49
2023-11-15T13:28:01.055Z,99908.06
2023-11-15T13:30:33.283Z,99930.70
2023-11-15T13:33:05.581Z,99934.73
2023-11-15T13:35:37.849Z,99941.56
2023-11-15T13:38:13.131Z,99939.61
2023-11-15T13:40:46.146Z,99943.74
2023-11-15T13:43:18.143Z,99949.28
2023-11-15T13:45:50.283Z,99956.19
2023-11-15T13:48:22.872Z,99958.84
2023-11-15T13:50:55.096Z,99946.70
2023-11-15T13:53:27.721Z,99967.44
2023-11-15T13:55:59.748Z,99964.02
2023-11-15T13:58:32.093Z,99966.56
2023-11-15T14:01:04.535Z,99969.93
2023-11-15T14:03:36.687Z,99973.25
2023-11-15T14:06:11.997Z,99975.98
2023-11-15T14:08:52.072Z,99981.11
2023-11-15T14:11:30.975Z,99972.67
2023-11-15T14:14:05.291Z,99998.82
2023-11-15T14:16:39.118Z,100002.66
2023-11-15T14:19:11.543Z,100001.71
2023-11-15T14:21:45.778Z,100006.06
2023-11-15T14:24:18.194Z,100010.48
2023-11-15T14:26:50.375Z,100015.09
2023-11-15T14:29:23.149Z,100005.39
2023-11-15T14:31:55.517Z,100025.03
2023-11-15T14:34:30.034Z,100033.94
2023-11-15T14:37:02.081Z,100039.76
2023-11-15T14:39:34.196Z,100045.97
2023-11-15T14:42:08.619Z,100045.36
2023-11-15T14:44:41.237Z,100052.98
2023-11-15T14:47:13.286Z,100055.61
2023-11-15T14:49:45.475Z,100066.95
2023-11-15T14:52:22.656Z,100068.70
2023-11-15T14:54:54.762Z,100072.14
2023-11-15T14:57:26.779Z,100074.76
2023-11-15T14:59:58.971Z,100078.65
2023-11-15T15:02:31.074Z,100081.21
2023-11-15T15:05:06.600Z,100089.75
2023-11-15T15:07:38.914Z,100097.70
2023-11-15T15:10:13.185Z,100100.35
2023-11-15T15:12:45.366Z,100109.39
2023-11-15T15:15:18.661Z,100116.73
2023-11-15T15:17:51.567Z,100122.23
2023-11-15T15:20:26.167Z,100126.42
2023-11-15T15:22:58.191Z,100131.80
2023-11-15T15:25:30.279Z,100133.89
2023-11-15T15:28:02.371Z,100126.39
2023-11-15T15:30:34.498Z,100145.11
2023-11-15T15:33:08.647Z,100147.48
2023-11-15T15:35:40.469Z,100147.30
2023-11-15T15:38:12.714Z,100153.00
2023-11-15T15:40:46.112Z,100158.17
2023-11-15T15:43:18.307Z,100162.27
2023-11-15T15:45:50.423Z,100164.99
2023-11-15T15:48:24.579Z,100168.37
2023-11-15T15:50:57.060Z,100168.99
2023-11-15T15:53:29.180Z,100172.28
2023-11-15T15:56:01.211Z,100178.65
2023-11-15T15:58:33.263Z,100180.52
2023-11-15T16:01:05.586Z,100188.44
2023-11-15T16:03:37.998Z,100194.87
2023-11-15T16:06:11.058Z,100198.58
2023-11-15T16:08:43.104Z,100200.49
2023-11-15T16:11:15.365Z,100208.88
2023-11-15T16:13:47.335Z,100214.98
2023-11-15T16:16:19.404Z,100225.48
2023-11-15T16:18:52.201Z,100231.75
2023-11-15T16:21:24.494Z,100239.72
2023-11-15T16:24:00.356Z,100242.31
2023-11-15T16:26:32.480Z,100247.78
2023-11-15T16:29:04.794Z,100249.52
2023-11-15T16:31:36.926Z,100250.28
2023-11-15T16:34:08.970Z,100258.98
2023-11-15T16:36:41.821Z,100259.94
2023-11-15T16:39:14.530Z,100263.55
2023-11-15T16:41:51.706Z,100267.04
2023-11-15T16:44:24.700Z,100271.78
2023-11-15T16:46:56.862Z,100279.37
2023-11-15T16:49:29.119Z,100281.23
2023-11-15T16:52:02.449Z,100290.73
2023-11-15T16:54:36.329Z,100287.60
2023-11-15T16:57:08.697Z,100300.65
2023-11-15T16:59:40.862Z,100306.80
2023-11-15T17:02:13.331Z,100308.44
2023-11-15T17:04:45.461Z,100311.96
2023-11-15T17:07:17.731Z,100319.19
2023-11-15T17:09:52.444Z,100322.64
2023-11-15T17:12:26.257Z,100325.70
2023-11-15T17:15:00.022Z,100336.11
2023-11-15T17:17:32.340Z,100339.75
2023-11-15T17:20:06.346Z,100344.17
2023-11-15T17:22:38.676Z,100345.88
2023-11-15T17:25:19.548Z,100350.80
2023-11-15T17:27:53.310Z,100350.02
2023-11-15T17:30:26.118Z,100343.49
2023-11-15T17:33:00.973Z,100360.97
2023-11-15T17:35:33.067Z,100365.79
2023-11-15T17:38:05.212Z,100371.58
2023-11-15T17:40:37.254Z,100375.08
2023-11-15T17:43:09.308Z,100375.77
2023-11-15T17:45:41.433Z,100385.83
2023-11-15T17:48:13.629Z,100390.92
2023-11-15T17:50:46.500Z,100392.91
2023-11-15T17:53:19.730Z,100396.16
2023-11-15T17:55:51.807Z,100399.86
2023-11-15T17:58:23.873Z,100401.41
2023-11-15T18:00:56.192Z,100400.69
2023-11-15T18:03:28.647Z,100385.21
2023-11-15T18:06:01.037Z,100397.33
2023-11-15T18:08:33.735Z,100402.61
2023-11-15T18:11:06.362Z,100405.46
2023-11-15T18:13:38.407Z,100408.95
2023-11-15T18:16:12.157Z,100399.72
2023-11-15T18:18:44.398Z,100415.67
2023-11-15T18:21:16.620Z,100412.27
2023-11-15T18:23:50.599Z,100404.71
2023-11-15T18:26:26.566Z,100431.27
2023-11-15T18:28:58.688Z,100429.61
2023-11-15T18:31:31.249Z,100431.82
2023-11-15T18:34:03.497Z,100425.88
2023-11-15T18:36:36.332Z,100411.36
2023-11-15T18:39:13.003Z,100426.55
2023-11-15T18:41:45.839Z,100427.06
2023-11-15T18:44:18.916Z,100428.39
2023-11-15T18:46:55.020Z,100422.98
2023-11-15T18:49:28.097Z,100421.63
2023-11-15T18:52:00.370Z,100419.98
2023-11-15T18:54:32.703Z,100422.27
2023-11-15T18:57:05.894Z,100424.76
2023-11-15T18:59:38.108Z,100422.66
2023-11-15T19:02:10.220Z,100428.30
2023-11-15T19:04:42.879Z,100430.23
2023-11-15T19:07:15.934Z,100435.02
2023-11-15T19:09:48.114Z,100434.46
2023-11-15T19:12:20.179Z,100438.66
2023-11-15T19:14:52.448Z,100423.60
2023-11-15T19:17:24.788Z,100441.82
2023-11-15T19:19:59.400Z,100445.33
2023-11-15T19:22:31.488Z,100449.46
2023-11-15T19:25:03.826Z,100448.40
2023-11-15T19:27:38.409Z,100445.95
2023-11-15T19:30:13.495Z,100426.70
2023-11-15T19:32:45.849Z,100448.66
2023-11-15T19:35:20.713Z,100449.89
2023-11-15T19:37:53.315Z,100452.78
2023-11-15T19:40:25.617Z,100452.98
2023-11-15T19:42:57.689Z,100450.27
2023-11-15T19:45:29.971Z,100455.34
2023-11-15T19:48:02.989Z,100462.33
2023-11-15T19:50:36.855Z,100464.64
2023-11-15T19:53:09.063Z,100467.99
2023-11-15T19:55:41.434Z,100467.05
2023-11-15T19:58:13.752Z,100468.63
2023-11-15T20:00:46.082Z,100453.75
2023-11-15T20:03:18.911Z,100468.88
2023-11-15T20:05:52.630Z,100468.38
2023-11-15T20:08:24.836Z,100471.92
2023-11-15T20:10:56.917Z,100478.58
2023-11-15T20:13:30.622Z,100479.59
2023-11-15T20:16:02.736Z,100480.90
2023-11-15T20:18:34.920Z,100483.79
2023-11-15T20:21:09.021Z,100486.11
2023-11-15T20:23:41.911Z,100486.85
2023-11-15T20:26:14.029Z,100492.18
2023-11-15T20:28:46.064Z,100490.80
2023-11-15T20:31:19.252Z,100498.79
2023-11-15T20:33:51.959Z,100499.31
2023-11-15T20:36:24.080Z,100506.29
2023-11-15T20:38:56.219Z,100504.95
2023-11-15T20:41:30.686Z,100510.33
2023-11-15T20:44:02.791Z,100511.91
2023-11-15T20:46:35.187Z,100495.56
2023-11-15T20:49:08.573Z,100505.93
2023-11-15T20:51:45.858Z,100508.17
2023-11-15T20:54:19.169Z,100505.79
2023-11-15T20:56:51.395Z,100508.19
2023-11-15T20:59:23.482Z,100513.80
2023-11-15T21:01:55.489Z,100520.77
2023-11-15T21:04:27.705Z,100522.87
2023-11-15T21:07:01.056Z,100530.63
2023-11-15T21:09:33.672Z,100532.01
2023-11-15T21:12:06.527Z,100533.16
2023-11-15T21:14:40.182Z,100530.88
2023-11-15T21:17:12.270Z,100529.92
2023-11-15T21:19:46.242Z,100535.09
2023-11-15T21:22:18.770Z,100530.64
2023-11-15T21:24:50.942Z,100534.10
2023-11-15T21:27:23.644Z,100534.88
2023-11-15T21:29:55.772Z,100537.63
2023-11-15T21:32:29.502Z,100537.79
2023-11-15T21:35:01.658Z,100534.43
2023-11-15T21:37:33.720Z,100532.67
2023-11-15T21:40:07.271Z,100535.70
2023-11-15T21:42:40.002Z,100531.80
2023-11-15T21:45:13.702Z,100535.23
2023-11-15T21:47:46.980Z,100535.84
2023-11-15T21:50:22.038Z,100540.42
2023-11-15T21:52:57.944Z,100539.67
2023-11-15T21:55:30.628Z,100543.91
2023-11-15T21:58:08.030Z,100548.19
2023-11-15T22:00:40.748Z,100550.55
2023-11-15T22:03:12.935Z,100561.64
2023-11-15T22:05:45.164Z,100562.94
2023-11-15T22:08:17.267Z,100570.34
2023-11-15T22:10:49.293Z,100566.91
2023-11-15T22:13:43.512Z,100567.60
2023-11-15T22:16:16.447Z,100565.98
2023-11-15T22:18:49.599Z,100568.28
2023-11-15T22:21:21.564Z,100564.67
2023-11-15T22:23:53.699Z,100562.02
2023-11-15T22:26:25.786Z,100562.57
2023-11-15T22:28:57.955Z,100570.41
2023-11-15T22:31:30.179Z,100567.91
2023-11-15T22:34:02.320Z,100573.20
2023-11-15T22:36:34.494Z,100570.10
2023-11-15T22:39:06.875Z,100576.38
2023-11-15T22:41:39.025Z,100576.09
2023-11-15T22:44:11.307Z,100580.66
2023-11-15T22:46:43.336Z,100582.42
2023-11-15T22:49:15.403Z,100584.72
2023-11-15T22:51:47.790Z,100590.90
2023-11-15T22:54:20.096Z,100591.13
2023-11-15T22:56:52.810Z,100589.47
2023-11-15T22:59:24.887Z,100570.27
2023-11-15T23:01:56.999Z,100583.23
2023-11-15T23:04:29.247Z,100579.83
2023-11-15T23:07:02.253Z,100578.66
2023-11-15T23:09:34.712Z,100573.33
2023-11-15T23:12:07.904Z,100574.15
2023-11-15T23:14:40.044Z,100585.20
2023-11-15T23:17:12.847Z,100587.83
2023-11-15T23:19:46.175Z,100588.05
2023-11-15T23:22:18.348Z,100567.90
2023-11-15T23:24:50.468Z,100584.05
2023-11-15T23:27:22.811Z,100580.58
2023-11-15T23:29:55.175Z,100582.80
2023-11-15T23:32:29.299Z,100584.46
2023-11-15T23:35:03.745Z,100582.55
2023-11-15T23:37:36.157Z,100579.33
2023-11-15T23:40:13.245Z,100581.34
2023-11-15T23:42:46.744Z,100578.91
2023-11-15T23:45:18.783Z,100573.42
2023-11-15T23:47:51.371Z,100556.06
2023-11-15T23:50:24.299Z,100571.10
2023-11-15T23:52:56.733Z,100568.20
2023-11-15T23:55:30.201Z,100571.38
2023-11-15T23:58:04.754Z,100571.19
